Meteo Giornale » Osservazioni meteo Italia » Treviso-S Angelo

ore: 19:50 - Osservazioni Meteo Treviso-S Angelo
Lat. 45° 39' N Lon. 12° 11' E Alt. 18 metri s.l.m.

sereno Europe/Rome

6 °C

Sereno

Temp. 24 Ore

-1 °C

10 °C

Nord

3.7 Km/h

Dew point 1 °C

Umidità 70 %

Visibilità  10 Km

Il sole sorge alle ore 07:40

Il sole tramonta alle ore 17:05

Data e Ora Cielo e Fenomeni T °C DP °C Um. % Pres. hPa Vis. km Vento km/h
Oggi h: 19:50 sereno Sereno 6 1 70 1014 10 N 3.7
Oggi h: 19:20 sereno Sereno 6 1 70 1014 10 N 3.7
Oggi h: 18:50 sereno Sereno 7 1 65 1014 10 N 1.8
Oggi h: 18:20 sereno Sereno 6 1 70 1014 10 N 1.8
Oggi h: 17:50 sereno Sereno 6 1 70 1014 10 N 3.7
Oggi h: 17:20 sereno Sereno 8 1 61 1013 10 N 5.5
Oggi h: 16:50 sereno Sereno 8 1 61 1014 10 N 5.5
Oggi h: 16:20 sereno Sereno 9 1 57 1013 10 S/SE 9.3
Oggi h: 15:50 sereno Sereno 9 0 53 1014 10 S/SE 7.4
Oggi h: 15:20 sereno Sereno 10 -0 49 1014 10 S/SO 7.4
Oggi h: 14:50 sereno Sereno 10 -1 46 1014 10 S 9.3
Oggi h: 14:20 sereno Sereno 10 0 49 1014 10 N 3.7
Oggi h: 13:50 sereno Sereno 10 0 49 1015 10 O/SO 11.1
Oggi h: 13:20 sereno Sereno 10 -1 46 1015 10 N 5.5
Oggi h: 12:50 sereno Sereno 10 -1 46 1016 10 N 5.5
Oggi h: 12:20 sereno Sereno 10 -4 36 1016 10 N 1.8
Oggi h: 11:50 sereno Sereno 8 -5 39 1016 10 N 3.7
Oggi h: 11:20 sereno Sereno 7 -4 45 1017 10 N 7.4
Oggi h: 10:50 poco_nuvoloso Poco Nuvoloso 6 -3 52 1017 10 N/NE 7.4
Oggi h: 10:20 poco_nuvoloso Poco Nuvoloso 5 -3 56 1017 10 N/NE 9.3
Oggi h: 09:50 poco_nuvoloso Poco Nuvoloso 3 -2 69 1017 10 N 5.5
Oggi h: 09:20 poco_nuvoloso Poco Nuvoloso 2 -2 74 1017 10 N 3.7
Oggi h: 08:50 sereno Sereno 2 -3 69 1016 10 N 5.5
Oggi h: 08:20 sereno Sereno 0 -3 80 1016 10 N 3.7
Oggi h: 07:50 sereno Sereno 0 -3 80 1016 10 N 5.5
Oggi h: 07:20 sereno Sereno -1 -3 86 1016 10 N 3.7
Oggi h: 06:50 sereno Sereno -0 -3 80 1016 10 N 5.5
Oggi h: 06:20 nuvoloso Nuvoloso 0 -4 74 1016 10 N 3.7
Oggi h: 05:50 nuvoloso Nuvoloso 0 -4 74 1016 10 N 1.8
Oggi h: 05:20 sereno Sereno -0 -4 74 1016 10 N 3.7
Oggi h: 04:50 nuvoloso Nuvoloso 0 -3 80 1016 10 N 1.8
Oggi h: 04:20 poco_nuvoloso Poco Nuvoloso 1 -3 74 1016 10 N 3.7
Oggi h: 03:50 sereno Sereno 0 -2 86 1016 10 N 3.7
Oggi h: 03:20 sereno Sereno 1 -2 80 1016 10 N 3.7
Oggi h: 02:50 poco_nuvoloso Poco Nuvoloso 1 -1 86 1016 10 N 3.7
Oggi h: 02:20 sereno Sereno 1 -1 86 1016 7 N 5.5
Oggi h: 01:50 sereno Sereno 1 -1 86 1016 6 N 3.7
Oggi h: 01:20 foschia Foschia 1 0 93 1016 4 N 5.5
Oggi h: 00:50 foschia Foschia 2 1 93 1016 2 N 5.5
Oggi h: 00:20 foschia Foschia 2 1 93 1016 2 N 3.7
Ieri h: 23:50 foschia Foschia Banco di Nebbia 2 1 93 1016 3 SO 9.3
Ieri h: 23:20 sereno Sereno 3 2 93 1015 7 N 5.5
Ieri h: 22:50 sereno Sereno 4 2 86 1015 7 NO 7.4
Ieri h: 22:20 sereno Sereno 3 2 93 1014 7 SO 9.3
Ieri h: 21:50 sereno Sereno 3 2 93 1014 7 N 5.5
Ieri h: 21:20 sereno Sereno 5 3 86 1013 7 N/NE 9.3
Ieri h: 20:50 sereno Sereno 3 3 100 1013 7 N 3.7
Ieri h: 20:20 sereno Sereno 4 2 86 1013 6 N 3.7
Ieri h: 19:50 sereno Sereno 4 3 93 1012 6 N 5.5